Weatherford, Texas
Current Conditions -  °F | °C
As of 7:02 AM on Friday 19 Dec 2014 (Local Time) from KMWL Reporting Station
Haze Haze  
Wind Chill: 40°   Ceiling: 600
Heat Index: 44°   Visibility: 6mi
Dew Point: 42°   Wind: 8mph
Humidity: 93%   Direction: 350°N
Pressure: 30.17"   Gusts: NA
Location:  32.76°N, 97.8°W
Report Text: KMWL 191302Z AUTO 35007KT 6SM BR BKN006 BKN080 07/06 A3017 RMK AO2 T00670056
Loading
Personal Weather Stations






























Interactive Weather Map New forecast layout! Learn more

10-Day Weather Forecast

Advertisements
Track Severe Weather on mobile